createdAt,value
2017-07-26T00:01:10.172Z,97.30
2017-07-26T00:03:37.653Z,97.40
2017-07-26T00:06:05.168Z,97.20
2017-07-26T00:08:32.652Z,97.90
2017-07-26T00:11:00.129Z,98.20
2017-07-26T00:13:27.651Z,98.30
2017-07-26T00:15:55.139Z,98.50
2017-07-26T00:18:22.647Z,98.30
2017-07-26T00:20:50.146Z,98.10
2017-07-26T00:23:17.660Z,98.30
2017-07-26T00:25:45.164Z,98.00
2017-07-26T00:28:12.676Z,98.00
2017-07-26T00:30:40.169Z,97.40
2017-07-26T00:33:07.672Z,97.70
2017-07-26T00:35:35.162Z,97.60
2017-07-26T00:38:02.698Z,97.30
2017-07-26T00:40:30.182Z,96.90
2017-07-26T00:42:57.659Z,97.00
2017-07-26T00:45:25.177Z,96.80
2017-07-26T00:47:52.671Z,96.50
2017-07-26T00:50:20.173Z,96.70
2017-07-26T00:52:48.429Z,97.10
2017-07-26T00:55:16.705Z,97.20
2017-07-26T00:57:44.951Z,96.80
2017-07-26T01:00:12.451Z,96.80
2017-07-26T01:02:39.932Z,97.00
2017-07-26T01:05:08.200Z,97.00
2017-07-26T01:07:36.462Z,96.70
2017-07-26T01:10:03.994Z,96.70
2017-07-26T01:12:31.491Z,96.80
2017-07-26T01:14:58.979Z,96.70
2017-07-26T01:17:26.489Z,96.40
2017-07-26T01:19:53.964Z,96.30
2017-07-26T01:22:21.470Z,96.40
2017-07-26T01:24:48.950Z,96.20
2017-07-26T01:27:17.225Z,96.20
2017-07-26T01:29:45.481Z,96.00
2017-07-26T01:32:12.990Z,96.00
2017-07-26T01:34:40.472Z,95.90
2017-07-26T01:37:07.972Z,96.00
2017-07-26T01:39:35.474Z,95.80
2017-07-26T01:42:02.981Z,95.70
2017-07-26T01:44:30.479Z,95.80
2017-07-26T01:46:57.961Z,95.50
2017-07-26T01:49:25.472Z,95.60
2017-07-26T01:51:52.964Z,95.50
2017-07-26T01:54:21.257Z,95.50
2017-07-26T01:56:48.744Z,95.40
2017-07-26T01:59:16.265Z,95.30
2017-07-26T02:01:43.757Z,95.20
2017-07-26T02:04:11.268Z,95.20
2017-07-26T02:06:38.760Z,95.40
2017-07-26T02:09:06.268Z,95.40
2017-07-26T02:11:34.516Z,95.30
2017-07-26T02:14:02.025Z,95.20
2017-07-26T02:16:29.528Z,95.30
2017-07-26T02:18:57.791Z,95.30
2017-07-26T02:21:25.285Z,95.20
2017-07-26T02:23:52.796Z,95.40
2017-07-26T02:26:20.288Z,95.20
2017-07-26T02:28:47.810Z,95.30
2017-07-26T02:31:15.316Z,95.30
2017-07-26T02:33:42.800Z,95.20
2017-07-26T02:36:10.308Z,95.10
2017-07-26T02:38:37.796Z,95.20
2017-07-26T02:41:05.291Z,95.30
2017-07-26T02:43:32.784Z,95.20
2017-07-26T02:46:00.288Z,95.10
2017-07-26T02:48:27.768Z,95.20
2017-07-26T02:50:55.292Z,95.20
2017-07-26T02:53:22.772Z,95.40
2017-07-26T02:55:51.044Z,95.40
2017-07-26T02:58:18.531Z,95.30
2017-07-26T03:00:46.048Z,95.40
2017-07-26T03:03:13.550Z,95.40
2017-07-26T03:05:41.062Z,95.40
2017-07-26T03:08:08.545Z,95.50
2017-07-26T03:10:36.809Z,95.20
2017-07-26T03:13:04.300Z,95.20
2017-07-26T03:15:31.824Z,95.20
2017-07-26T03:17:59.324Z,95.20
2017-07-26T03:20:26.813Z,95.10
2017-07-26T03:22:54.323Z,95.10
2017-07-26T03:25:22.572Z,95.20
2017-07-26T03:27:50.071Z,95.20
2017-07-26T03:30:17.564Z,95.20
2017-07-26T03:32:45.063Z,95.30
2017-07-26T03:35:12.547Z,95.00
2017-07-26T03:37:40.815Z,95.00
2017-07-26T03:40:08.303Z,95.00
2017-07-26T03:42:35.807Z,95.00
2017-07-26T03:45:03.300Z,94.90
2017-07-26T03:47:30.804Z,94.90
2017-07-26T03:49:58.291Z,95.10
2017-07-26T03:52:25.782Z,94.90
2017-07-26T03:54:53.272Z,95.10
2017-07-26T03:57:20.776Z,95.10
2017-07-26T03:59:48.260Z,95.00
2017-07-26T04:02:15.774Z,95.00
2017-07-26T04:04:43.252Z,94.90
2017-07-26T04:07:10.725Z,94.90
2017-07-26T04:09:38.993Z,94.80
2017-07-26T04:12:06.481Z,94.80
2017-07-26T04:14:33.993Z,94.70
2017-07-26T04:17:01.472Z,94.90
2017-07-26T04:19:28.985Z,94.80
2017-07-26T04:21:56.477Z,94.80
2017-07-26T04:24:23.975Z,94.70
2017-07-26T04:26:51.492Z,94.80
2017-07-26T04:29:19.008Z,94.50
2017-07-26T04:31:46.492Z,94.50
2017-07-26T04:34:14.000Z,94.70
2017-07-26T04:36:42.246Z,94.50
2017-07-26T04:39:09.763Z,94.40
2017-07-26T04:41:37.251Z,94.40
2017-07-26T04:44:05.503Z,94.40
2017-07-26T04:46:33.012Z,94.40
2017-07-26T04:49:00.492Z,94.30
2017-07-26T04:51:27.996Z,94.20
2017-07-26T04:53:55.485Z,94.50
2017-07-26T04:56:23.018Z,94.60
2017-07-26T04:58:50.507Z,94.40
2017-07-26T05:01:18.012Z,94.50
2017-07-26T05:03:45.489Z,94.80
2017-07-26T05:06:12.999Z,94.90
2017-07-26T05:08:40.515Z,94.90
2017-07-26T05:11:08.027Z,95.00
2017-07-26T05:13:35.518Z,94.80
2017-07-26T05:16:03.196Z,94.80
2017-07-26T05:18:30.700Z,94.80
2017-07-26T05:20:58.200Z,94.60
2017-07-26T05:23:25.692Z,94.70
2017-07-26T05:25:53.969Z,94.80
2017-07-26T05:28:21.456Z,94.80
2017-07-26T05:30:48.948Z,94.80
2017-07-26T05:33:16.458Z,94.70
2017-07-26T05:35:43.954Z,94.60
2017-07-26T05:38:11.461Z,94.60
2017-07-26T05:40:39.864Z,94.50
2017-07-26T05:43:07.456Z,94.50
2017-07-26T05:45:34.988Z,94.40
2017-07-26T05:48:02.488Z,94.60
2017-07-26T05:50:29.976Z,94.80
2017-07-26T05:52:57.480Z,94.60
2017-07-26T05:55:24.976Z,94.70
2017-07-26T05:57:53.255Z,94.70
2017-07-26T06:00:20.760Z,94.60
2017-07-26T06:02:48.275Z,94.70
2017-07-26T06:05:15.764Z,94.60
2017-07-26T06:07:44.047Z,94.80
2017-07-26T06:10:11.541Z,94.70
2017-07-26T06:12:39.071Z,94.70
2017-07-26T06:15:06.572Z,94.60
2017-07-26T06:17:34.054Z,94.60
2017-07-26T06:20:01.594Z,94.70
2017-07-26T06:22:29.083Z,94.70
2017-07-26T06:24:56.632Z,94.80
2017-07-26T06:27:24.887Z,94.80
2017-07-26T06:29:53.159Z,95.00
2017-07-26T06:32:21.429Z,94.90
2017-07-26T06:34:48.950Z,94.90
2017-07-26T06:37:16.453Z,94.80
2017-07-26T06:39:43.960Z,94.70
2017-07-26T06:42:11.556Z,94.70
2017-07-26T06:44:39.848Z,94.70
2017-07-26T06:47:07.353Z,94.70
2017-07-26T06:49:34.878Z,94.80
2017-07-26T06:52:02.364Z,94.80
2017-07-26T06:54:29.860Z,95.10
2017-07-26T06:56:57.368Z,95.30
2017-07-26T06:59:24.848Z,95.20
2017-07-26T07:01:52.367Z,95.20
2017-07-26T07:04:19.868Z,95.00
2017-07-26T07:06:47.380Z,95.20
2017-07-26T07:09:14.877Z,95.30
2017-07-26T07:11:42.393Z,95.40
2017-07-26T07:14:09.885Z,95.60
2017-07-26T07:16:37.427Z,95.40
2017-07-26T07:19:04.925Z,95.70
2017-07-26T07:21:32.436Z,95.60
2017-07-26T07:23:59.924Z,95.60
2017-07-26T07:26:27.435Z,95.40
2017-07-26T07:28:54.932Z,95.80
2017-07-26T07:31:22.443Z,95.50
2017-07-26T07:33:49.928Z,95.60
2017-07-26T07:36:17.432Z,95.60
2017-07-26T07:38:44.931Z,95.70
2017-07-26T07:41:12.440Z,96.00
2017-07-26T07:43:39.927Z,95.50
2017-07-26T07:46:07.452Z,95.50
2017-07-26T07:48:34.996Z,95.80
2017-07-26T07:51:02.469Z,95.80
2017-07-26T07:53:29.964Z,95.60
2017-07-26T07:55:57.467Z,95.50
2017-07-26T07:58:24.980Z,95.40
2017-07-26T08:00:52.472Z,95.40
2017-07-26T08:03:19.975Z,95.30
2017-07-26T08:05:47.468Z,95.10
2017-07-26T08:08:14.971Z,95.10
2017-07-26T08:10:42.460Z,95.20
2017-07-26T08:13:09.977Z,94.80
2017-07-26T08:15:38.229Z,94.90
2017-07-26T08:18:06.500Z,94.80
2017-07-26T08:20:34.748Z,94.60
2017-07-26T08:23:02.268Z,94.60
2017-07-26T08:25:29.748Z,94.50
2017-07-26T08:27:57.290Z,94.60
2017-07-26T08:30:25.544Z,94.30
2017-07-26T08:32:53.796Z,94.10
2017-07-26T08:35:21.305Z,94.10
2017-07-26T08:37:48.797Z,94.20
2017-07-26T08:40:16.307Z,93.70
2017-07-26T08:42:43.796Z,93.70
2017-07-26T08:45:11.288Z,93.90
2017-07-26T08:47:38.783Z,93.70
2017-07-26T08:50:06.295Z,93.70
2017-07-26T08:52:34.556Z,93.80
2017-07-26T08:55:02.056Z,93.70
2017-07-26T08:57:29.549Z,93.60
2017-07-26T08:59:57.073Z,93.20
2017-07-26T09:02:24.565Z,93.50
2017-07-26T09:04:52.074Z,93.50
2017-07-26T09:07:20.329Z,93.40
2017-07-26T09:09:47.837Z,93.30
2017-07-26T09:12:15.369Z,93.30
2017-07-26T09:14:42.920Z,93.10
2017-07-26T09:17:10.391Z,92.80
2017-07-26T09:19:37.892Z,92.80
2017-07-26T09:22:06.441Z,92.90
2017-07-26T09:24:33.932Z,92.40
2017-07-26T09:27:01.440Z,92.40
2017-07-26T09:29:28.927Z,92.60
2017-07-26T09:31:56.456Z,92.60
2017-07-26T09:34:23.953Z,92.50
2017-07-26T09:36:51.464Z,92.40
2017-07-26T09:39:19.778Z,92.40
2017-07-26T09:41:47.283Z,92.40
2017-07-26T09:44:14.850Z,92.50
2017-07-26T09:46:42.355Z,92.00
2017-07-26T09:49:10.624Z,92.00
2017-07-26T09:51:38.898Z,92.10
2017-07-26T09:54:06.396Z,92.10
2017-07-26T09:56:33.900Z,92.10
2017-07-26T09:59:01.418Z,91.70
2017-07-26T10:01:28.927Z,92.00
2017-07-26T10:03:56.408Z,91.70
2017-07-26T10:06:23.924Z,91.70
2017-07-26T10:08:52.196Z,91.60
2017-07-26T10:11:19.764Z,91.40
2017-07-26T10:13:47.358Z,91.10
2017-07-26T10:16:14.860Z,90.60
2017-07-26T10:18:42.388Z,91.00
2017-07-26T10:21:09.888Z,91.20
2017-07-26T10:23:37.426Z,91.00
2017-07-26T10:26:04.924Z,90.70
2017-07-26T10:28:32.435Z,90.60
2017-07-26T10:30:59.943Z,90.40
2017-07-26T10:33:27.468Z,90.70
2017-07-26T10:35:54.951Z,90.50
2017-07-26T10:38:22.467Z,89.90
2017-07-26T10:40:50.122Z,90.00
2017-07-26T10:43:17.660Z,90.40
2017-07-26T10:45:45.215Z,90.30
2017-07-26T10:48:12.734Z,88.80
2017-07-26T10:50:40.235Z,85.80
2017-07-26T10:53:10.674Z,85.90
2017-07-26T10:55:38.167Z,86.00
2017-07-26T10:58:05.745Z,85.00
2017-07-26T11:00:33.257Z,85.70
2017-07-26T11:03:00.757Z,84.90
2017-07-26T11:05:28.269Z,84.60
2017-07-26T11:07:55.771Z,81.60
2017-07-26T11:10:23.276Z,77.90
2017-07-26T11:12:50.760Z,75.80
2017-07-26T11:15:18.280Z,74.20
2017-07-26T11:17:46.488Z,72.50
2017-07-26T11:20:14.628Z,71.40
2017-07-26T11:22:42.112Z,72.10
2017-07-26T11:25:09.617Z,73.10
2017-07-26T11:27:37.941Z,72.60
2017-07-26T11:30:05.500Z,71.90
2017-07-26T11:32:32.984Z,73.20
2017-07-26T11:35:00.587Z,72.90
2017-07-26T11:37:28.089Z,73.90
2017-07-26T11:39:55.779Z,72.40
2017-07-26T11:42:23.293Z,73.30
2017-07-26T11:44:50.785Z,72.30
2017-07-26T11:47:21.022Z,73.00
2017-07-26T11:49:48.508Z,73.50
2017-07-26T11:52:16.015Z,73.40
2017-07-26T11:54:43.507Z,73.60
2017-07-26T11:57:10.995Z,73.30
2017-07-26T11:59:38.471Z,74.60
2017-07-26T12:02:05.987Z,74.30
2017-07-26T12:04:33.479Z,72.40
2017-07-26T12:07:00.984Z,72.30
2017-07-26T12:09:28.490Z,70.10
2017-07-26T12:11:56.792Z,70.50
2017-07-26T12:14:24.279Z,70.40
2017-07-26T12:16:52.535Z,69.60
2017-07-26T12:19:20.040Z,69.60
2017-07-26T12:21:47.523Z,71.30
2017-07-26T12:24:16.196Z,69.80
2017-07-26T12:26:44.460Z,69.10
2017-07-26T12:29:12.731Z,69.30
2017-07-26T12:31:40.224Z,69.20
2017-07-26T12:34:07.748Z,69.10
2017-07-26T12:36:35.235Z,67.00
2017-07-26T12:39:02.732Z,66.10
2017-07-26T12:41:30.218Z,67.00
2017-07-26T12:43:58.112Z,67.30
2017-07-26T12:46:25.595Z,67.60
2017-07-26T12:48:53.104Z,66.80
2017-07-26T12:51:20.588Z,64.20
2017-07-26T12:53:48.103Z,65.40
2017-07-26T12:56:15.588Z,64.00
2017-07-26T12:58:43.106Z,64.30
2017-07-26T13:01:10.593Z,65.30
2017-07-26T13:03:38.103Z,65.70
2017-07-26T13:06:05.599Z,64.70
2017-07-26T13:08:33.124Z,64.90
2017-07-26T13:11:00.601Z,64.10
2017-07-26T13:13:28.087Z,62.50
2017-07-26T13:15:56.354Z,62.60
2017-07-26T13:18:24.623Z,61.20
2017-07-26T13:20:52.128Z,61.20
2017-07-26T13:23:19.604Z,61.40
2017-07-26T13:25:47.107Z,61.60
2017-07-26T13:28:14.595Z,61.90
2017-07-26T13:30:42.105Z,57.40
2017-07-26T13:33:09.592Z,56.70
2017-07-26T13:35:37.096Z,55.50
2017-07-26T13:38:04.584Z,55.60
2017-07-26T13:40:32.080Z,55.90
2017-07-26T13:42:59.572Z,56.20
2017-07-26T13:45:27.096Z,55.30
2017-07-26T13:47:54.588Z,55.10
2017-07-26T13:50:22.073Z,55.70
2017-07-26T13:52:49.590Z,54.50
2017-07-26T13:55:17.115Z,55.50
2017-07-26T13:57:44.620Z,55.20
2017-07-26T14:00:12.104Z,56.40
2017-07-26T14:02:39.609Z,57.60
2017-07-26T14:05:07.099Z,58.90
2017-07-26T14:07:34.906Z,60.30
2017-07-26T14:10:02.399Z,61.30
2017-07-26T14:12:29.903Z,61.20
2017-07-26T14:14:57.396Z,61.50
2017-07-26T14:17:25.674Z,60.80
2017-07-26T14:19:53.156Z,60.70
2017-07-26T14:22:20.660Z,61.20
2017-07-26T14:24:48.143Z,61.80
2017-07-26T14:27:15.667Z,63.10
2017-07-26T14:29:43.177Z,61.70
2017-07-26T14:32:10.686Z,59.70
2017-07-26T14:34:38.197Z,59.50
2017-07-26T14:37:05.682Z,59.90
2017-07-26T14:39:33.962Z,60.20
2017-07-26T14:42:01.450Z,60.10
2017-07-26T14:44:29.791Z,60.00
2017-07-26T14:46:57.366Z,60.90
2017-07-26T14:49:24.873Z,60.50
2017-07-26T14:51:52.356Z,60.10
2017-07-26T14:54:19.904Z,59.80
2017-07-26T14:56:47.388Z,60.50
2017-07-26T14:59:14.891Z,58.50
2017-07-26T15:01:42.379Z,58.50
2017-07-26T15:04:09.883Z,58.60
2017-07-26T15:06:37.365Z,59.20
2017-07-26T15:09:05.380Z,60.50
2017-07-26T15:11:32.871Z,59.30
2017-07-26T15:14:00.379Z,58.30
2017-07-26T15:16:28.927Z,58.50
2017-07-26T15:18:56.424Z,58.50
2017-07-26T15:21:23.943Z,59.10
2017-07-26T15:23:52.197Z,59.10
2017-07-26T15:26:20.456Z,58.10
2017-07-26T15:28:48.700Z,58.60
2017-07-26T15:31:17.023Z,59.20
2017-07-26T15:33:44.524Z,59.60
2017-07-26T15:36:12.031Z,60.30
2017-07-26T15:38:39.514Z,59.10
2017-07-26T15:41:07.020Z,59.20
2017-07-26T15:43:34.503Z,58.30
2017-07-26T15:46:02.052Z,58.10
2017-07-26T15:48:29.559Z,58.30
2017-07-26T15:50:57.071Z,58.60
2017-07-26T15:53:24.556Z,58.00
2017-07-26T15:55:52.088Z,58.60
2017-07-26T15:58:19.571Z,59.80
2017-07-26T16:00:47.077Z,60.20
2017-07-26T16:03:14.580Z,59.90
2017-07-26T16:05:42.068Z,59.40
2017-07-26T16:08:09.575Z,58.20
2017-07-26T16:10:37.068Z,59.00
2017-07-26T16:13:04.584Z,58.60
2017-07-26T16:15:32.063Z,58.00
2017-07-26T16:18:00.348Z,57.50
2017-07-26T16:20:27.828Z,57.50
2017-07-26T16:22:56.104Z,58.40
2017-07-26T16:25:23.617Z,58.40
2017-07-26T16:27:51.130Z,58.30
2017-07-26T16:30:18.635Z,58.90
2017-07-26T16:32:46.159Z,59.70
2017-07-26T16:35:14.308Z,59.00
2017-07-26T16:37:41.803Z,59.40
2017-07-26T16:40:09.288Z,59.00
2017-07-26T16:42:36.829Z,59.00
2017-07-26T16:45:04.318Z,59.40
2017-07-26T16:47:31.804Z,59.00
2017-07-26T16:49:59.795Z,59.00
2017-07-26T16:52:28.047Z,59.40
2017-07-26T16:54:56.325Z,59.60
2017-07-26T16:57:23.808Z,59.50
2017-07-26T16:59:51.308Z,60.40
2017-07-26T17:02:19.563Z,59.10
2017-07-26T17:04:47.063Z,59.10
2017-07-26T17:07:14.562Z,58.90
2017-07-26T17:09:42.072Z,58.80
2017-07-26T17:12:09.551Z,59.40
2017-07-26T17:14:37.061Z,59.60
2017-07-26T17:17:04.539Z,59.70
2017-07-26T17:19:32.109Z,60.50
2017-07-26T17:21:59.595Z,61.00
2017-07-26T17:24:27.103Z,61.00
2017-07-26T17:26:54.641Z,61.00
2017-07-26T17:29:22.149Z,60.80
2017-07-26T17:31:49.632Z,60.80
2017-07-26T17:34:17.155Z,61.50
2017-07-26T17:36:44.635Z,61.90
2017-07-26T17:39:12.128Z,62.10
2017-07-26T17:41:39.631Z,62.60
2017-07-26T17:44:07.129Z,61.50
2017-07-26T17:46:35.452Z,62.00
2017-07-26T17:49:03.710Z,62.40
2017-07-26T17:51:31.999Z,62.80
2017-07-26T17:53:59.502Z,62.80
2017-07-26T17:56:27.000Z,64.50
2017-07-26T17:58:54.484Z,64.10
2017-07-26T18:01:21.984Z,64.00
2017-07-26T18:03:49.469Z,64.50
2017-07-26T18:06:16.971Z,64.80
2017-07-26T18:08:44.449Z,63.70
2017-07-26T18:11:12.777Z,64.20
2017-07-26T18:13:40.256Z,64.70
2017-07-26T18:16:07.768Z,65.20
2017-07-26T18:18:35.251Z,65.50
2017-07-26T18:21:02.759Z,65.30
2017-07-26T18:23:30.248Z,66.20
2017-07-26T18:25:57.756Z,66.20
2017-07-26T18:28:25.264Z,66.70
2017-07-26T18:30:52.764Z,67.10
2017-07-26T18:33:20.283Z,67.40
2017-07-26T18:35:47.768Z,67.20
2017-07-26T18:38:15.289Z,67.50
2017-07-26T18:40:42.782Z,67.80
2017-07-26T18:43:10.308Z,67.90
2017-07-26T18:45:37.803Z,68.40
2017-07-26T18:48:05.397Z,68.50
2017-07-26T18:50:32.907Z,68.70
2017-07-26T18:53:00.411Z,68.60
2017-07-26T18:55:27.899Z,68.30
2017-07-26T18:57:56.176Z,68.70
2017-07-26T19:00:23.670Z,68.60
2017-07-26T19:02:51.153Z,68.70
2017-07-26T19:05:18.676Z,69.00
2017-07-26T19:07:47.026Z,69.20
2017-07-26T19:10:14.526Z,68.90
2017-07-26T19:12:42.023Z,69.30
2017-07-26T19:15:09.555Z,69.60
2017-07-26T19:17:37.079Z,70.00
2017-07-26T19:20:04.604Z,70.30
2017-07-26T19:22:32.860Z,70.90
2017-07-26T19:25:00.382Z,70.90
2017-07-26T19:27:27.876Z,71.00
2017-07-26T19:29:55.400Z,70.90
2017-07-26T19:32:22.933Z,71.40
2017-07-26T19:34:50.456Z,71.60
2017-07-26T19:37:17.982Z,72.10
2017-07-26T19:39:45.548Z,72.40
2017-07-26T19:42:13.048Z,73.10
2017-07-26T19:44:40.541Z,74.40
2017-07-26T19:47:08.058Z,75.90
2017-07-26T19:49:35.621Z,76.20
2017-07-26T19:52:03.152Z,77.20
2017-07-26T19:54:30.653Z,79.10
2017-07-26T19:56:58.185Z,80.40
2017-07-26T19:59:25.701Z,81.20
2017-07-26T20:01:53.220Z,80.50
2017-07-26T20:04:20.731Z,80.10
2017-07-26T20:06:48.265Z,80.40
2017-07-26T20:09:15.768Z,81.20
2017-07-26T20:11:43.271Z,80.50
2017-07-26T20:14:10.798Z,81.20
2017-07-26T20:16:38.302Z,81.90
2017-07-26T20:19:05.795Z,82.90
2017-07-26T20:21:33.333Z,83.40
2017-07-26T20:24:00.819Z,83.60
2017-07-26T20:26:28.337Z,83.00
2017-07-26T20:28:55.857Z,83.10
2017-07-26T20:31:23.460Z,83.50
2017-07-26T20:33:50.988Z,83.80
2017-07-26T20:36:18.538Z,83.20
2017-07-26T20:38:46.075Z,83.90
2017-07-26T20:41:13.612Z,84.10
2017-07-26T20:43:41.106Z,83.70
2017-07-26T20:46:08.637Z,83.20
2017-07-26T20:48:36.180Z,83.50
2017-07-26T20:51:03.681Z,85.20
2017-07-26T20:53:31.212Z,85.40
2017-07-26T20:55:58.719Z,85.60
2017-07-26T20:58:26.222Z,85.30
2017-07-26T21:00:53.716Z,85.00
2017-07-26T21:03:21.221Z,84.90
2017-07-26T21:05:48.740Z,83.70
2017-07-26T21:08:16.243Z,83.60
2017-07-26T21:10:43.748Z,83.50
2017-07-26T21:13:11.264Z,83.20
2017-07-26T21:15:38.764Z,84.00
2017-07-26T21:18:06.265Z,84.20
2017-07-26T21:20:33.752Z,84.00
2017-07-26T21:23:01.261Z,84.00
2017-07-26T21:25:28.740Z,83.90
2017-07-26T21:27:56.250Z,83.70
2017-07-26T21:30:23.738Z,84.30
2017-07-26T21:32:52.011Z,84.70
2017-07-26T21:35:19.483Z,84.20
2017-07-26T21:37:47.036Z,84.30
2017-07-26T21:40:14.520Z,83.90
2017-07-26T21:42:41.991Z,83.70
2017-07-26T21:45:09.498Z,84.30
2017-07-26T21:47:36.999Z,85.30
2017-07-26T21:50:04.508Z,85.60
2017-07-26T21:52:32.017Z,85.60
2017-07-26T21:54:59.516Z,85.00
2017-07-26T21:57:27.029Z,85.10
2017-07-26T21:59:54.541Z,85.30
2017-07-26T22:02:22.031Z,85.70
2017-07-26T22:04:49.539Z,85.60
2017-07-26T22:07:17.024Z,85.90
2017-07-26T22:09:44.543Z,85.90
2017-07-26T22:12:12.054Z,86.40
2017-07-26T22:14:39.608Z,86.80
2017-07-26T22:17:07.091Z,87.60
2017-07-26T22:19:34.595Z,87.10
2017-07-26T22:22:02.068Z,87.10
2017-07-26T22:24:29.582Z,87.40
2017-07-26T22:26:57.083Z,86.60
2017-07-26T22:29:24.603Z,87.40
2017-07-26T22:31:52.086Z,87.60
2017-07-26T22:34:19.580Z,87.50
2017-07-26T22:36:47.085Z,87.30
2017-07-26T22:39:14.584Z,87.50
2017-07-26T22:41:42.093Z,87.30
2017-07-26T22:44:09.578Z,86.70
2017-07-26T22:46:37.084Z,87.30
2017-07-26T22:49:04.564Z,86.70
2017-07-26T22:51:32.078Z,87.10
2017-07-26T22:53:59.567Z,86.90
2017-07-26T22:56:27.136Z,87.30
2017-07-26T22:58:54.615Z,86.90
2017-07-26T23:01:22.128Z,86.90
2017-07-26T23:03:49.628Z,87.10
2017-07-26T23:06:17.132Z,87.60
2017-07-26T23:08:44.621Z,87.00
2017-07-26T23:11:12.127Z,86.50
2017-07-26T23:13:39.607Z,86.10
2017-07-26T23:16:07.135Z,85.90
2017-07-26T23:18:34.633Z,86.80
2017-07-26T23:21:02.171Z,87.50
2017-07-26T23:23:29.651Z,87.40
2017-07-26T23:25:58.004Z,87.30
2017-07-26T23:28:25.489Z,87.10
2017-07-26T23:30:52.976Z,87.00
2017-07-26T23:33:21.261Z,86.80
2017-07-26T23:35:48.745Z,86.60
2017-07-26T23:38:16.244Z,86.90
2017-07-26T23:40:43.736Z,86.90
2017-07-26T23:43:11.259Z,86.30
2017-07-26T23:45:38.743Z,86.00
2017-07-26T23:48:06.240Z,85.90
2017-07-26T23:50:33.722Z,86.10
2017-07-26T23:53:01.236Z,86.00
2017-07-26T23:55:28.735Z,86.00
2017-07-26T23:57:56.252Z,85.90
